Savannah River Plant, South Carolina
Current Conditions -  °F | °C
As of 3:55 AM on Saturday 22 Nov 2014 (Local Time) from KBNL Reporting Station
Clear Clear  
Wind Chill: 34°   Ceiling: Unl
Heat Index: 37°   Visibility: NA
Dew Point: 28°   Wind: 5mph
Humidity: 70%   Direction: 70°ENE
Pressure: 30.49"   Gusts: NA
Location:  33.2653°N, 81.6553°W
Report Text: KBNL 220855Z AUTO 07004KT CLR 03/M02 A3049 RMK AO2
Loading
Personal Weather Stations






























Interactive Weather Map New forecast layout! Learn more

10-Day Weather Forecast

Advertisements
Track Severe Weather on mobile